Time;durP1;ratioP1;P1;durP2;ratioP2;P2;SDS_P1;SDS_P2;PMS_P1;PMS_P2;Temp;Humidity;BMP_temperature;BMP_pressure;BME280_temperature;BME280_humidity;BME280_pressure;Samples;Min_cycle;Max_cycle;Signal;HPM_P1;HPM_P2
2022/04/18 00:00:47;;;;;;;12.50;8.40;;;;;;101023.14;;;;107232;1274;65430;-32
2022/04/18 00:03:17;;;;;;;12.40;8.60;;;;;;101025.63;;;;107253;1274;64836;-38
2022/04/18 00:05:44;;;;;;;12.00;8.80;;;;;;101025.23;;;;107220;1274;64858;-39
2022/04/18 00:08:11;;;;;;;13.10;8.90;;;;;;101020.05;;;;107252;1274;64865;-32
2022/04/18 00:10:44;;;;;;;12.10;8.30;;;;;;101021.86;;;;107242;1274;65571;-35
2022/04/18 00:13:11;;;;;;;11.80;8.40;;;;;;101024.83;;;;107207;1274;64728;-35
2022/04/18 00:15:41;;;;;;;12.50;8.60;;;;;;101022.78;;;;107278;1272;64760;-33
2022/04/18 00:18:11;;;;;;;12.40;9.10;;;;;;101021.71;;;;107239;1274;64875;-30
2022/04/18 00:20:38;;;;;;;13.70;9.60;;;;;;101018.11;;;;107261;1274;64829;-32
2022/04/18 00:23:05;;;;;;;13.30;9.60;;;;;;101016.64;;;;107222;1274;64981;-38
2022/04/18 00:25:36;;;;;;;11.80;8.30;;;;;;101018.09;;;;107213;1272;64957;-38
2022/04/18 00:28:03;;;;;;;11.60;9.10;;;;;;101012.98;;;;107236;1274;64706;-32
2022/04/18 00:30:33;;;;;;;13.90;8.70;;;;;;101013.29;;;;107241;1274;64854;-32
2022/04/18 00:33:04;;;;;;;14.70;8.70;;;;;;101014.41;;;;107212;1274;64746;-37
2022/04/18 00:35:31;;;;;;;13.00;9.40;;;;;;101012.60;;;;107208;1274;66185;-38
2022/04/18 00:37:59;;;;;;;11.70;8.50;;;;;;101012.89;;;;107209;1274;64904;-31
2022/04/18 00:40:26;;;;;;;10.80;8.50;;;;;;101015.60;;;;107210;1274;64845;-31
2022/04/18 00:43:05;;;;;;;13.20;9.20;;;;;;101010.33;;;;107203;1274;64753;-38
2022/04/18 00:45:34;;;;;;;13.20;8.10;;;;;;101011.16;;;;107111;1274;65034;-39
2022/04/18 00:48:05;;;;;;;12.30;8.70;;;;;;101008.69;;;;107133;1274;66579;-33
2022/04/18 00:50:38;;;;;;;13.10;8.70;;;;;;101009.50;;;;107223;1274;64837;-33
2022/04/18 00:53:06;;;;;;;12.40;8.30;;;;;;101003.44;;;;107229;1274;65884;-33
2022/04/18 00:55:36;;;;;;;13.60;8.90;;;;;;101000.83;;;;107212;1274;65474;-33
2022/04/18 00:58:04;;;;;;;13.20;8.30;;;;;;100996.45;;;;107248;1274;64754;-39
2022/04/18 01:00:31;;;;;;;12.10;8.60;;;;;;100996.55;;;;107120;1274;65220;-38
2022/04/18 01:03:02;;;;;;;11.90;9.30;;;;;;100997.70;;;;107250;1274;64865;-32
2022/04/18 01:05:32;;;;;;;12.00;9.00;;;;;;100993.61;;;;107199;1274;64844;-33
2022/04/18 01:08:06;;;;;;;10.90;8.20;;;;;;100994.03;;;;107065;1274;64764;-32
2022/04/18 01:10:33;;;;;;;12.40;8.60;;;;;;100995.20;;;;107263;1274;64837;-32
2022/04/18 01:13:04;;;;;;;13.00;8.80;;;;;;100992.10;;;;107237;1274;64773;-32
2022/04/18 01:15:31;;;;;;;13.10;8.80;;;;;;100989.05;;;;107218;1274;64948;-32
2022/04/18 01:17:59;;;;;;;11.50;8.70;;;;;;100988.80;;;;107202;1274;64860;-38
2022/04/18 01:20:36;;;;;;;11.80;8.70;;;;;;100992.61;;;;107109;1274;64898;-37
2022/04/18 01:23:09;;;;;;;12.30;8.40;;;;;;100989.19;;;;107231;1274;64949;-37
2022/04/18 01:31:11;;;;;;;11.50;8.60;;;;;;100980.46;;;;107217;1273;64779;-37
2022/04/18 01:33:41;;;;;;;12.10;7.60;;;;;;100977.77;;;;107213;1274;64752;-37
2022/04/18 01:36:08;;;;;;;12.40;8.10;;;;;;100978.04;;;;107244;1274;64836;-37
2022/04/18 01:38:36;;;;;;;12.20;8.00;;;;;;100978.30;;;;107243;1274;65874;-38
2022/04/18 01:41:06;;;;;;;11.70;8.40;;;;;;100976.54;;;;107212;1274;64770;-38
2022/04/18 01:43:36;;;;;;;11.40;8.10;;;;;;100975.23;;;;107223;1274;64804;-37
2022/04/18 01:46:03;;;;;;;10.40;7.70;;;;;;100971.86;;;;107188;1273;64764;-38
2022/04/18 01:48:30;;;;;;;12.00;8.10;;;;;;100974.06;;;;107193;1274;64862;-32
2022/04/18 01:50:57;;;;;;;11.10;7.50;;;;;;100968.73;;;;107212;1274;65935;-31
2022/04/18 01:53:25;;;;;;;10.80;7.10;;;;;;100969.48;;;;107229;1274;64830;-33
2022/04/18 01:55:52;;;;;;;10.50;7.40;;;;;;100968.27;;;;107196;1274;64842;-34
2022/04/18 01:58:19;;;;;;;10.80;7.40;;;;;;100963.61;;;;107197;1274;64845;-39
2022/04/18 02:00:50;;;;;;;9.60;6.80;;;;;;100958.77;;;;107162;1274;64747;-38
2022/04/18 02:03:21;;;;;;;10.10;6.80;;;;;;100959.74;;;;107175;1274;64924;-32
2022/04/18 02:05:55;;;;;;;11.80;7.30;;;;;;100955.23;;;;107209;1274;64577;-32
2022/04/18 02:08:23;;;;;;;10.30;6.70;;;;;;100955.80;;;;107162;1274;64738;-32
2022/04/18 02:10:53;;;;;;;10.70;7.20;;;;;;100951.58;;;;107206;1274;64836;-33
2022/04/18 02:13:21;;;;;;;10.30;7.20;;;;;;100947.83;;;;107251;1274;64885;-32
2022/04/18 02:15:50;;;;;;;10.00;7.10;;;;;;100946.41;;;;107243;1274;64991;-32
2022/04/18 02:18:20;;;;;;;9.60;6.90;;;;;;100945.64;;;;107208;1274;64983;-39
2022/04/18 02:20:47;;;;;;;10.00;7.00;;;;;;100944.25;;;;107223;1274;64732;-38
2022/04/18 02:23:14;;;;;;;9.60;6.40;;;;;;100942.19;;;;107115;1274;64968;-33
2022/04/18 02:25:41;;;;;;;10.20;6.90;;;;;;100940.16;;;;107241;1274;64782;-32
2022/04/18 02:28:11;;;;;;;10.70;6.50;;;;;;100940.21;;;;107221;1274;66891;-37
2022/04/18 02:30:41;;;;;;;9.20;6.20;;;;;;100936.21;;;;107203;1274;65482;-40
2022/04/18 02:33:12;;;;;;;10.40;6.30;;;;;;100934.45;;;;107241;1274;64773;-32
2022/04/18 02:35:39;;;;;;;9.00;6.40;;;;;;100930.81;;;;107233;1274;64799;-34
2022/04/18 02:38:09;;;;;;;10.30;6.80;;;;;;100932.30;;;;107247;1274;64820;-32
2022/04/18 02:40:37;;;;;;;10.00;6.20;;;;;;100933.48;;;;107220;1274;65925;-32
2022/04/18 02:43:07;;;;;;;8.20;5.80;;;;;;100935.18;;;;107235;1274;64843;-37
2022/04/18 02:45:34;;;;;;;9.50;6.30;;;;;;100933.30;;;;107235;1274;65183;-32
2022/04/18 02:48:02;;;;;;;9.00;6.10;;;;;;100931.13;;;;107221;1274;64749;-31
2022/04/18 02:50:29;;;;;;;9.00;6.20;;;;;;100930.52;;;;107252;1274;64973;-31
2022/04/18 02:52:59;;;;;;;8.30;5.60;;;;;;100931.75;;;;107230;1274;64911;-38
2022/04/18 02:55:30;;;;;;;9.50;6.20;;;;;;100932.07;;;;107151;1274;64856;-39
2022/04/18 02:57:57;;;;;;;8.70;5.80;;;;;;100931.40;;;;107241;1274;64874;-32
2022/04/18 03:00:28;;;;;;;9.30;6.20;;;;;;100929.63;;;;107139;1273;64893;-32
2022/04/18 03:02:58;;;;;;;9.40;6.40;;;;;;100932.73;;;;107227;1274;64792;-37
2022/04/18 03:05:25;;;;;;;9.30;5.90;;;;;;100931.15;;;;107155;1274;64859;-41
2022/04/18 03:07:55;;;;;;;8.90;6.20;;;;;;100930.36;;;;107208;1274;64972;-38
2022/04/18 03:13:14;;;;;;;8.70;5.80;;;;;;100934.02;;;;107247;1274;64840;-32
2022/04/18 03:15:44;;;;;;;8.90;5.60;;;;;;100929.63;;;;107256;1274;64872;-32
2022/04/18 03:18:14;;;;;;;8.90;6.50;;;;;;100930.95;;;;107256;1274;65245;-32
2022/04/18 03:20:44;;;;;;;8.80;5.80;;;;;;100929.56;;;;107228;1274;64860;-32
2022/04/18 03:23:11;;;;;;;9.60;6.60;;;;;;100928.52;;;;107248;1274;64978;-32
2022/04/18 03:25:42;;;;;;;9.60;6.20;;;;;;100924.77;;;;107165;1274;65084;-32
2022/04/18 03:28:09;;;;;;;9.20;5.90;;;;;;100924.27;;;;107213;1274;64745;-37
2022/04/18 03:30:39;;;;;;;9.00;5.80;;;;;;100921.63;;;;107251;1274;65074;-38
2022/04/18 03:33:07;;;;;;;8.20;5.80;;;;;;100922.15;;;;107243;1274;64767;-38
2022/04/18 03:35:38;;;;;;;8.50;6.10;;;;;;100921.13;;;;107266;1274;64761;-38
2022/04/18 03:40:56;;;;;;;8.50;5.50;;;;;;100923.77;;;;106829;1279;64756;-38
2022/04/18 03:43:24;;;;;;;8.70;5.30;;;;;;100922.61;;;;107220;1274;65046;-38
2022/04/18 03:45:54;;;;;;;8.60;5.30;;;;;;100924.04;;;;107203;1274;64736;-36
2022/04/18 03:48:21;;;;;;;8.50;5.30;;;;;;100921.68;;;;107235;1274;64846;-38
2022/04/18 03:50:52;;;;;;;8.20;5.60;;;;;;100922.42;;;;107173;1274;64756;-38
2022/04/18 03:53:22;;;;;;;8.20;5.70;;;;;;100925.81;;;;107246;1274;64749;-37
2022/04/18 03:55:49;;;;;;;9.30;5.60;;;;;;100926.23;;;;107251;1274;65572;-37
2022/04/18 03:58:17;;;;;;;6.80;5.10;;;;;;100921.70;;;;107245;1274;64834;-32
2022/04/18 04:00:47;;;;;;;7.10;4.90;;;;;;100921.94;;;;107215;1274;64716;-32
2022/04/18 04:03:14;;;;;;;7.80;5.60;;;;;;100920.58;;;;107221;1273;64832;-38
2022/04/18 04:05:43;;;;;;;7.90;5.00;;;;;;100917.52;;;;107250;1274;64868;-39
2022/04/18 04:08:18;;;;;;;8.10;5.10;;;;;;100919.46;;;;107212;1273;65663;-38
2022/04/18 04:10:45;;;;;;;8.40;5.20;;;;;;100922.48;;;;107213;1273;64984;-38
2022/04/18 04:13:12;;;;;;;7.20;4.60;;;;;;100919.60;;;;107233;1274;64824;-37
2022/04/18 04:15:42;;;;;;;8.10;5.30;;;;;;100922.48;;;;107002;1274;280269;-38
2022/04/18 04:18:10;;;;;;;7.70;5.50;;;;;;100926.28;;;;107246;1274;64772;-38
2022/04/18 04:20:37;;;;;;;9.00;5.30;;;;;;100925.42;;;;107257;1274;66109;-37
2022/04/18 04:23:07;;;;;;;8.00;4.80;;;;;;100926.13;;;;107214;1274;64702;-38
2022/04/18 04:25:35;;;;;;;7.80;4.80;;;;;;100925.95;;;;107274;1274;65382;-37
2022/04/18 04:28:06;;;;;;;8.10;5.30;;;;;;100927.94;;;;107134;1274;64860;-32
2022/04/18 04:30:36;;;;;;;7.70;4.90;;;;;;100927.55;;;;107249;1274;64884;-32
2022/04/18 04:33:06;;;;;;;7.50;4.70;;;;;;100927.09;;;;107263;1274;65025;-38
2022/04/18 04:35:33;;;;;;;7.10;4.80;;;;;;100928.67;;;;107229;1274;64950;-38
2022/04/18 04:38:00;;;;;;;7.30;4.80;;;;;;100928.42;;;;107163;1274;64977;-38
2022/04/18 04:40:30;;;;;;;8.20;4.90;;;;;;100927.98;;;;107124;1274;64743;-37
2022/04/18 04:43:01;;;;;;;7.10;4.50;;;;;;100929.49;;;;107263;1274;64696;-32
2022/04/18 04:45:32;;;;;;;7.90;4.60;;;;;;100924.38;;;;107231;1274;65703;-32
2022/04/18 04:48:03;;;;;;;7.00;4.60;;;;;;100925.77;;;;107250;1274;64853;-32
2022/04/18 04:50:31;;;;;;;7.30;4.80;;;;;;100927.54;;;;107256;1274;64834;-32
2022/04/18 04:53:03;;;;;;;7.50;4.60;;;;;;100933.86;;;;107239;1274;64749;-37
2022/04/18 04:55:30;;;;;;;7.20;4.70;;;;;;100933.91;;;;107269;1274;65551;-38
2022/04/18 04:58:02;;;;;;;6.10;4.40;;;;;;100936.21;;;;107217;1274;65931;-36
2022/04/18 05:00:29;;;;;;;7.00;4.60;;;;;;100936.48;;;;107253;1274;64737;-33
2022/04/18 05:02:59;;;;;;;6.50;4.20;;;;;;100938.64;;;;107237;1274;64760;-33
2022/04/18 05:05:30;;;;;;;7.40;4.60;;;;;;100936.99;;;;107226;1274;64751;-33
2022/04/18 05:08:01;;;;;;;7.40;4.80;;;;;;100932.71;;;;107251;1274;64818;-33
2022/04/18 05:10:28;;;;;;;5.90;4.10;;;;;;100930.04;;;;107243;1274;66939;-32
2022/04/18 05:12:55;;;;;;;7.00;4.70;;;;;;100924.12;;;;107147;1274;64905;-34
2022/04/18 05:15:25;;;;;;;6.50;4.40;;;;;;100923.45;;;;107133;1274;64760;-34
2022/04/18 05:17:55;;;;;;;6.70;4.10;;;;;;100925.64;;;;107192;1274;64951;-33
2022/04/18 05:20:22;;;;;;;6.90;4.50;;;;;;100931.38;;;;107247;1274;64908;-33
2022/04/18 05:22:50;;;;;;;7.30;5.00;;;;;;100931.87;;;;107156;1274;65950;-38
2022/04/18 05:25:17;;;;;;;6.90;4.20;;;;;;100931.12;;;;107146;1274;64745;-38
2022/04/18 05:27:44;;;;;;;6.70;4.40;;;;;;100934.01;;;;107226;1274;64764;-37
2022/04/18 05:30:11;;;;;;;7.30;4.50;;;;;;100939.02;;;;107138;1274;64983;-37
2022/04/18 05:32:43;;;;;;;7.70;4.90;;;;;;100935.98;;;;107237;1274;64885;-32
2022/04/18 05:35:14;;;;;;;7.80;4.60;;;;;;100929.98;;;;107218;1274;67139;-32
2022/04/18 05:37:44;;;;;;;7.80;4.80;;;;;;100932.80;;;;107150;1274;64862;-32
2022/04/18 05:40:15;;;;;;;6.50;4.60;;;;;;100929.31;;;;107254;1274;64774;-31
2022/04/18 05:42:47;;;;;;;6.50;4.60;;;;;;100926.65;;;;107129;1274;64852;-33
2022/04/18 05:45:14;;;;;;;7.00;4.70;;;;;;100921.70;;;;107085;1274;64875;-32
2022/04/18 05:47:45;;;;;;;8.80;5.00;;;;;;100921.70;;;;107148;1273;64801;-32
2022/04/18 05:50:16;;;;;;;8.00;5.40;;;;;;100921.44;;;;107144;1274;64859;-33
2022/04/18 05:52:48;;;;;;;8.20;4.40;;;;;;100921.36;;;;107179;1274;64724;-38
2022/04/18 05:55:15;;;;;;;7.90;4.50;;;;;;100919.09;;;;107155;1274;64806;-38
2022/04/18 05:57:46;;;;;;;6.70;4.10;;;;;;100917.73;;;;107163;1274;64871;-37
2022/04/18 06:00:15;;;;;;;7.70;4.90;;;;;;100922.08;;;;107294;1274;66134;-38
2022/04/18 06:02:43;;;;;;;7.80;4.70;;;;;;100923.43;;;;107157;1274;64751;-36
2022/04/18 06:05:10;;;;;;;8.20;5.10;;;;;;100920.97;;;;107167;1274;64878;-40
2022/04/18 06:07:42;;;;;;;8.40;4.80;;;;;;100919.86;;;;107250;1274;63600;-33
2022/04/18 06:10:12;;;;;;;8.80;5.10;;;;;;100921.23;;;;107238;1274;64881;-32
2022/04/18 06:12:44;;;;;;;8.50;4.50;;;;;;100919.88;;;;107169;1274;66149;-38
2022/04/18 06:15:11;;;;;;;7.90;5.20;;;;;;100920.66;;;;107206;1274;64859;-38
2022/04/18 06:17:39;;;;;;;8.60;4.90;;;;;;100917.03;;;;107211;1274;64787;-45
2022/04/18 06:20:07;;;;;;;7.30;4.10;;;;;;100919.14;;;;107140;1274;64896;-38
2022/04/18 06:22:35;;;;;;;7.60;4.60;;;;;;100919.19;;;;107131;1277;62213;-38
2022/04/18 06:25:03;;;;;;;7.60;4.60;;;;;;100919.72;;;;107232;1273;68507;-38
2022/04/18 06:27:30;;;;;;;8.20;5.10;;;;;;100921.59;;;;107178;1274;64744;-34
2022/04/18 06:29:58;;;;;;;9.60;5.20;;;;;;100921.20;;;;107145;1274;64862;-38
2022/04/18 06:32:29;;;;;;;7.10;4.20;;;;;;100922.10;;;;107250;1274;64917;-38
2022/04/18 06:35:00;;;;;;;9.00;4.80;;;;;;100920.88;;;;107277;1274;64831;-38
2022/04/18 06:37:27;;;;;;;7.50;4.70;;;;;;100922.94;;;;107134;1273;65878;-39
2022/04/18 06:39:59;;;;;;;9.00;5.40;;;;;;100920.30;;;;107252;1274;64876;-39
2022/04/18 06:42:26;;;;;;;7.80;4.50;;;;;;100923.08;;;;107266;1274;64562;-34
2022/04/18 06:44:56;;;;;;;8.60;4.90;;;;;;100922.23;;;;107204;1274;64776;-33
2022/04/18 06:47:27;;;;;;;8.50;4.70;;;;;;100920.06;;;;107255;1273;64747;-32
2022/04/18 06:49:57;;;;;;;8.60;5.10;;;;;;100919.58;;;;107149;1274;65120;-33
2022/04/18 06:52:27;;;;;;;9.40;5.40;;;;;;100919.28;;;;107245;1274;64957;-36
2022/04/18 06:54:59;;;;;;;8.30;4.80;;;;;;100918.48;;;;107222;1274;64851;-38
2022/04/18 06:57:26;;;;;;;7.70;5.00;;;;;;100918.73;;;;107234;1274;64871;-32
2022/04/18 06:59:56;;;;;;;7.30;4.60;;;;;;100917.31;;;;107254;1274;64941;-39
2022/04/18 07:02:24;;;;;;;8.20;4.70;;;;;;100918.56;;;;107280;1274;66190;-32
2022/04/18 07:04:54;;;;;;;7.50;4.50;;;;;;100917.49;;;;107222;1274;64799;-33
2022/04/18 07:07:21;;;;;;;8.60;4.50;;;;;;100916.71;;;;107230;1274;64760;-38
2022/04/18 07:09:48;;;;;;;7.90;4.40;;;;;;100917.04;;;;107228;1273;64847;-38
2022/04/18 07:12:22;;;;;;;7.10;4.40;;;;;;100917.62;;;;107155;1274;64644;-35
2022/04/18 07:14:50;;;;;;;6.70;4.10;;;;;;100917.64;;;;107264;1274;65861;-37
2022/04/18 07:17:21;;;;;;;8.20;4.30;;;;;;100915.70;;;;107282;1274;64728;-38
2022/04/18 07:19:49;;;;;;;7.60;4.30;;;;;;100912.55;;;;107193;1274;64824;-37
2022/04/18 07:22:16;;;;;;;7.70;4.70;;;;;;100908.66;;;;107223;1274;64778;-38
2022/04/18 07:24:47;;;;;;;7.60;4.30;;;;;;100904.31;;;;107241;1274;64744;-38
2022/04/18 07:27:21;;;;;;;7.30;4.00;;;;;;100902.48;;;;107176;1274;65827;-33
2022/04/18 07:29:55;;;;;;;7.70;4.30;;;;;;100901.82;;;;107041;1274;64825;-31
2022/04/18 07:32:25;;;;;;;7.60;4.10;;;;;;100901.47;;;;107097;1274;64936;-37
2022/04/18 07:35:02;;;;;;;7.50;4.10;;;;;;100899.44;;;;107123;1274;64750;-37
2022/04/18 07:37:30;;;;;;;7.30;3.90;;;;;;100900.73;;;;107203;1274;64886;-38
2022/04/18 07:40:01;;;;;;;7.10;3.80;;;;;;100897.17;;;;107232;1274;65969;-39
2022/04/18 07:42:28;;;;;;;6.50;3.90;;;;;;100898.91;;;;107229;1274;64698;-39
2022/04/18 07:45:02;;;;;;;7.00;4.00;;;;;;100891.75;;;;107250;1274;64841;-38
2022/04/18 07:47:33;;;;;;;7.20;3.80;;;;;;100890.27;;;;107167;1274;64758;-38
2022/04/18 07:50:05;;;;;;;7.00;3.60;;;;;;100887.11;;;;107116;1274;64772;-37
2022/04/18 07:52:36;;;;;;;6.70;3.70;;;;;;100885.38;;;;107169;1274;67995;-32
2022/04/18 07:55:07;;;;;;;6.60;3.50;;;;;;100884.20;;;;107248;1274;64731;-32
2022/04/18 07:57:37;;;;;;;7.40;3.10;;;;;;100886.36;;;;107195;1274;63624;-32
2022/04/18 08:00:10;;;;;;;6.30;3.50;;;;;;100871.02;;;;107243;1274;64903;-35
2022/04/18 08:02:40;;;;;;;6.30;3.20;;;;;;100885.52;;;;107236;1274;64941;-38
2022/04/18 08:05:11;;;;;;;5.80;3.10;;;;;;100880.98;;;;107176;1274;67185;-33
2022/04/18 08:07:43;;;;;;;6.90;3.40;;;;;;100874.11;;;;107195;1274;64972;-32
2022/04/18 08:10:11;;;;;;;7.80;3.40;;;;;;100869.91;;;;107167;1274;64705;-38
2022/04/18 08:12:42;;;;;;;7.20;3.50;;;;;;100874.55;;;;107261;1274;65190;-32
2022/04/18 08:15:13;;;;;;;6.10;3.10;;;;;;100877.40;;;;107179;1274;64871;-32
2022/04/18 08:17:43;;;;;;;6.30;2.90;;;;;;100870.75;;;;107119;1275;66431;-33
2022/04/18 08:20:14;;;;;;;7.20;3.40;;;;;;100870.38;;;;107221;1274;64871;-36
2022/04/18 08:22:41;;;;;;;6.20;3.00;;;;;;100872.66;;;;107197;1274;64753;-38
2022/04/18 08:25:13;;;;;;;6.30;3.40;;;;;;100871.80;;;;107230;1274;64895;-38
2022/04/18 08:27:40;;;;;;;5.80;2.90;;;;;;100866.71;;;;107168;1274;64885;-32
2022/04/18 08:30:09;;;;;;;5.10;2.80;;;;;;100867.52;;;;107169;1274;68315;-32
2022/04/18 08:32:41;;;;;;;6.50;2.90;;;;;;100864.60;;;;107131;1277;64972;-38
2022/04/18 08:35:11;;;;;;;5.10;2.70;;;;;;100862.73;;;;107243;1274;64744;-38
2022/04/18 08:37:41;;;;;;;5.60;2.80;;;;;;100868.20;;;;107095;1276;64875;-38
2022/04/18 08:40:14;;;;;;;7.50;3.10;;;;;;100861.17;;;;107222;1274;64846;-38
2022/04/18 08:42:44;;;;;;;5.70;2.90;;;;;;100861.91;;;;107282;1274;64959;-38
2022/04/18 08:45:14;;;;;;;5.40;2.80;;;;;;100863.61;;;;107195;1274;63996;-38
2022/04/18 08:53:32;;;;;;;5.30;2.50;;;;;;100849.56;;;;107161;1274;64682;-37
2022/04/18 08:56:04;;;;;;;6.00;2.70;;;;;;100844.88;;;;107150;1271;66679;-37
2022/04/18 08:58:32;;;;;;;5.60;2.70;;;;;;100846.55;;;;107152;1274;64854;-32
2022/04/18 09:01:02;;;;;;;5.80;2.70;;;;;;100845.43;;;;107149;1274;64911;-31
2022/04/18 09:03:29;;;;;;;5.90;2.40;;;;;;100844.73;;;;107250;1274;64842;-38
2022/04/18 09:06:12;;;;;;;5.90;2.90;;;;;;100842.31;;;;107252;1274;64885;-37
2022/04/18 09:08:54;;;;;;;5.70;2.90;;;;;;100833.86;;;;107195;1274;66111;-37
2022/04/18 09:11:31;;;;;;;6.30;2.90;;;;;;100827.11;;;;107206;1274;64949;-37
2022/04/18 09:14:14;;;;;;;4.70;2.50;;;;;;100823.34;;;;107252;1274;64728;-37
2022/04/18 09:16:43;;;;;;;5.60;3.10;;;;;;100819.78;;;;107226;1274;64888;-32
2022/04/18 09:19:16;;;;;;;6.80;2.40;;;;;;100822.96;;;;107266;1274;64744;-32
2022/04/18 09:22:04;;;;;;;5.70;2.70;;;;;;100816.52;;;;107279;1274;66608;-37
2022/04/18 09:24:36;;;;;;;5.90;2.60;;;;;;100816.47;;;;107232;1273;64827;-40
2022/04/18 09:27:18;;;;;;;5.60;2.70;;;;;;100818.19;;;;107266;1274;64781;-36
2022/04/18 09:30:09;;;;;;;5.20;2.20;;;;;;100807.95;;;;107087;1274;65017;-37
2022/04/18 09:32:40;;;;;;;4.90;2.30;;;;;;100790.64;;;;107277;1274;64833;-39
2022/04/18 09:35:11;;;;;;;6.40;2.70;;;;;;100791.27;;;;107159;1274;67102;-38
2022/04/18 09:37:39;;;;;;;5.30;2.50;;;;;;100795.86;;;;107231;1274;64721;-32
2022/04/18 09:40:11;;;;;;;5.00;2.40;;;;;;100781.87;;;;107118;1274;64779;-32
2022/04/18 09:42:38;;;;;;;5.20;2.20;;;;;;100778.40;;;;107249;1274;64590;-38
2022/04/18 09:45:08;;;;;;;5.30;2.10;;;;;;100769.89;;;;107240;1274;65506;-38
2022/04/18 09:47:36;;;;;;;5.20;2.10;;;;;;100774.02;;;;107000;1277;66210;-38
2022/04/18 09:50:58;;;;;;;5.90;2.40;;;;;;100769.92;;;;107175;1274;64945;-37
2022/04/18 09:53:08;;;;;;;4.70;2.10;;;;;;100762.98;;;;107124;1275;64772;-38
2022/04/18 09:55:44;;;;;;;4.90;1.90;;;;;;100751.02;;;;107230;1274;64886;-38
2022/04/18 09:58:14;;;;;;;4.00;1.80;;;;;;100757.14;;;;107195;1274;64749;-38
2022/04/18 10:00:45;;;;;;;4.70;2.10;;;;;;100749.95;;;;107253;1274;66342;-38
2022/04/18 10:03:12;;;;;;;4.50;2.00;;;;;;100747.33;;;;107247;1273;64727;-32
2022/04/18 10:05:44;;;;;;;4.10;1.90;;;;;;100742.55;;;;107226;1273;64879;-32
2022/04/18 10:08:12;;;;;;;5.00;2.30;;;;;;100736.10;;;;107138;1274;64893;-38
2022/04/18 10:10:43;;;;;;;5.00;2.10;;;;;;100730.75;;;;107185;1274;64838;-39
2022/04/18 10:13:11;;;;;;;4.70;2.20;;;;;;100727.16;;;;107146;1274;66953;-39
2022/04/18 10:15:42;;;;;;;4.40;1.80;;;;;;100725.30;;;;107183;1274;64852;-38
2022/04/18 10:18:10;;;;;;;4.30;1.80;;;;;;100724.52;;;;107257;1274;64951;-39
2022/04/18 10:21:25;;;;;;;4.40;1.50;;;;;;100721.88;;;;107280;1274;64715;-38
2022/04/18 10:24:33;;;;;;;4.10;1.60;;;;;;100719.00;;;;107291;1274;64756;-32
2022/04/18 10:27:31;;;;;;;3.40;1.50;;;;;;100712.38;;;;107230;1274;67650;-32
2022/04/18 10:30:03;;;;;;;4.80;1.70;;;;;;100709.31;;;;107213;1274;64844;-33
2022/04/18 10:32:31;;;;;;;4.80;1.80;;;;;;100708.13;;;;107268;1274;64844;-33
2022/04/18 10:35:01;;;;;;;4.80;1.70;;;;;;100704.58;;;;107230;1274;64709;-33
2022/04/18 10:37:31;;;;;;;3.90;1.70;;;;;;100702.23;;;;107176;1274;64804;-32
2022/04/18 10:40:06;;;;;;;4.70;1.80;;;;;;100705.98;;;;107238;1274;66551;-32
2022/04/18 10:42:43;;;;;;;3.80;1.80;;;;;;100701.89;;;;107252;1274;64823;-38
2022/04/18 10:45:19;;;;;;;3.60;1.60;;;;;;100693.43;;;;107148;1274;64756;-38
2022/04/18 10:47:56;;;;;;;3.80;1.50;;;;;;100690.31;;;;107162;1274;64863;-38
2022/04/18 10:50:48;;;;;;;3.90;1.60;;;;;;100686.52;;;;107266;1274;64765;-38
2022/04/18 10:53:34;;;;;;;5.60;1.60;;;;;;100690.76;;;;107137;1274;67651;-38
2022/04/18 10:56:02;;;;;;;4.30;1.60;;;;;;100688.19;;;;107145;1274;64770;-39
2022/04/18 10:58:36;;;;;;;4.10;1.40;;;;;;100697.14;;;;107222;1274;64909;-37
2022/04/18 11:01:09;;;;;;;3.70;1.50;;;;;;100687.52;;;;107220;1274;64759;-37
2022/04/18 11:03:57;;;;;;;4.80;1.70;;;;;;100681.31;;;;107240;1274;64735;-37
2022/04/18 11:06:25;;;;;;;3.80;1.40;;;;;;100681.05;;;;107249;1274;67156;-37
2022/04/18 11:09:15;;;;;;;3.40;1.50;;;;;;100674.20;;;;107263;1274;64942;-37
2022/04/18 11:11:52;;;;;;;3.60;1.60;;;;;;100669.23;;;;107250;1274;64852;-38
2022/04/18 11:14:28;;;;;;;4.00;1.40;;;;;;100668.88;;;;107204;1274;64889;-43
2022/04/18 11:17:03;;;;;;;3.30;1.40;;;;;;100673.84;;;;107154;1274;64914;-38
2022/04/18 11:19:37;;;;;;;3.70;1.50;;;;;;100666.45;;;;107183;1274;65567;-32
2022/04/18 11:22:10;;;;;;;3.80;1.40;;;;;;100666.48;;;;107182;1274;64853;-37
2022/04/18 11:24:46;;;;;;;3.60;1.40;;;;;;100662.60;;;;107232;1274;64766;-37
2022/04/18 11:27:26;;;;;;;4.70;1.80;;;;;;100660.84;;;;107205;1274;64686;-33
2022/04/18 11:30:03;;;;;;;3.90;1.30;;;;;;100656.59;;;;107236;1274;65031;-32
2022/04/18 11:32:38;;;;;;;3.50;1.50;;;;;;100660.52;;;;107245;1274;66526;-32
2022/04/18 11:35:08;;;;;;;3.20;1.50;;;;;;100656.17;;;;107039;1274;65927;-34
2022/04/18 11:37:39;;;;;;;4.20;1.60;;;;;;100652.00;;;;107159;1274;64896;-32
2022/04/18 11:40:10;;;;;;;3.60;1.40;;;;;;100637.41;;;;107131;1274;64759;-34
2022/04/18 11:42:39;;;;;;;3.40;1.30;;;;;;100626.08;;;;107213;1274;64812;-36
2022/04/18 11:45:25;;;;;;;3.90;1.60;;;;;;100626.70;;;;107259;1274;65981;-39
2022/04/18 11:47:53;;;;;;;3.00;1.50;;;;;;100624.14;;;;107194;1274;64721;-33
2022/04/18 11:50:23;;;;;;;4.00;1.60;;;;;;100618.85;;;;107192;1274;64763;-33
2022/04/18 11:53:03;;;;;;;2.80;1.20;;;;;;100613.58;;;;107140;1274;64763;-33
2022/04/18 11:55:44;;;;;;;4.20;1.40;;;;;;100605.52;;;;107234;1274;64811;-38
2022/04/18 11:58:12;;;;;;;3.90;1.40;;;;;;100593.20;;;;107214;1274;67258;-38
2022/04/18 12:09:10;;;;;;;4.80;1.60;;;;;;100587.28;;;;107228;1274;64773;-38
2022/04/18 12:11:41;;;;;;;3.70;1.20;;;;;;100571.48;;;;107237;1274;65932;-31
2022/04/18 12:14:08;;;;;;;3.70;1.40;;;;;;100571.06;;;;107218;1274;64961;-31
2022/04/18 12:16:40;;;;;;;3.80;1.60;;;;;;100565.08;;;;106913;1274;321354;-32
2022/04/18 12:19:12;;;;;;;3.00;1.20;;;;;;100564.44;;;;107247;1274;64777;-31
2022/04/18 12:21:44;;;;;;;3.50;1.20;;;;;;100555.63;;;;107212;1274;64630;-31
2022/04/18 12:24:11;;;;;;;4.40;1.20;;;;;;100561.06;;;;107197;1274;65956;-31
2022/04/18 12:26:41;;;;;;;4.10;1.60;;;;;;100552.33;;;;107231;1274;64865;-38
2022/04/18 12:29:12;;;;;;;3.70;1.70;;;;;;100544.98;;;;107257;1274;64884;-39
2022/04/18 12:31:41;;;;;;;3.80;1.30;;;;;;100533.19;;;;107260;1274;64885;-40
2022/04/18 12:34:19;;;;;;;3.50;1.40;;;;;;100524.38;;;;107291;1274;64782;-39
2022/04/18 12:36:58;;;;;;;3.00;1.10;;;;;;100520.05;;;;107268;1273;67183;-31
2022/04/18 12:39:28;;;;;;;3.60;1.20;;;;;;100520.23;;;;107261;1274;64865;-31
2022/04/18 12:42:05;;;;;;;4.70;1.60;;;;;;100519.89;;;;107219;1274;65171;-31
2022/04/18 12:44:39;;;;;;;4.50;1.20;;;;;;100512.48;;;;107144;1274;64820;-31
2022/04/18 12:47:17;;;;;;;5.20;1.30;;;;;;100503.90;;;;107260;1274;64739;-37
2022/04/18 12:50:16;;;;;;;3.90;1.20;;;;;;100498.12;;;;107291;1274;66466;-38
2022/04/18 12:52:51;;;;;;;3.20;1.10;;;;;;100501.06;;;;107271;1274;64859;-31
2022/04/18 12:55:31;;;;;;;3.20;1.40;;;;;;100486.29;;;;107244;1273;64864;-31
2022/04/18 12:58:07;;;;;;;2.60;1.10;;;;;;100479.92;;;;107157;1274;64751;-39
2022/04/18 13:00:40;;;;;;;3.90;1.30;;;;;;100475.54;;;;107210;1274;64869;-32
2022/04/18 13:03:10;;;;;;;4.20;1.40;;;;;;100472.95;;;;107262;1274;67056;-32
2022/04/18 13:05:46;;;;;;;3.20;1.20;;;;;;100466.52;;;;107245;1273;64714;-31
2022/04/18 13:08:16;;;;;;;3.20;1.20;;;;;;100458.75;;;;107248;1274;64756;-38
2022/04/18 13:10:46;;;;;;;3.90;1.40;;;;;;100459.35;;;;107239;1274;64874;-37
2022/04/18 13:13:19;;;;;;;4.10;1.40;;;;;;100453.20;;;;107162;1274;64833;-38
2022/04/18 13:15:48;;;;;;;3.70;1.90;;;;;;100452.13;;;;107293;1274;66332;-37
2022/04/18 13:18:26;;;;;;;3.00;1.20;;;;;;100444.02;;;;107170;1274;65017;-37
2022/04/18 13:20:54;;;;;;;3.90;1.40;;;;;;100445.42;;;;107224;1274;64840;-38
2022/04/18 13:23:24;;;;;;;5.60;1.70;;;;;;100449.41;;;;107263;1273;63591;-38
2022/04/18 13:25:51;;;;;;;4.00;1.40;;;;;;100445.80;;;;107290;1274;64749;-31
2022/04/18 13:28:22;;;;;;;3.20;1.20;;;;;;100425.89;;;;107095;1277;64868;-31
2022/04/18 13:30:56;;;;;;;4.40;1.30;;;;;;100413.79;;;;107259;1274;65180;-31